Time,TemperatureF,DewpointF,PressureIn,WindDirection,WindDirectionDegrees,WindSpeedMPH,WindSpeedGustMPH,Humidity,HourlyPrecipIn,Conditions,Clouds,dailyrainin,SoftwareType,DateUTC
2013-08-13 00:00:00,69.8,69.2,29.94,North,0,0.0,0.0,98,0.00,,OVC,0.00,VWS V14.01,2013-08-13 04:00:00,
2013-08-13 01:00:00,69.2,68.3,29.93,North,0,0.0,0.0,97,0.00,,OVC,0.00,VWS V14.01,2013-08-13 05:00:00,
2013-08-13 02:00:00,69.2,67.7,29.91,North,0,0.0,0.0,95,0.00,,OVC,0.00,VWS V14.01,2013-08-13 06:00:00,
2013-08-13 03:00:00,69.5,67.7,29.91,North,0,0.0,0.0,94,0.00,,OVC,0.00,VWS V14.01,2013-08-13 07:00:00,
2013-08-13 04:00:00,70.3,67.2,29.90,North,0,0.0,0.0,90,0.00,,OVC,0.00,VWS V14.01,2013-08-13 08:00:00,
2013-08-13 05:00:00,69.2,66.8,29.89,North,0,0.0,0.0,92,0.00,,OVC,0.00,VWS V14.01,2013-08-13 09:00:00,
2013-08-13 06:00:00,69.1,66.4,29.88,North,0,0.0,0.0,91,0.00,,OVC,0.00,VWS V14.01,2013-08-13 10:00:00,
2013-08-13 07:00:00,68.0,66.2,29.88,North,0,0.0,0.0,94,0.00,,OVC,0.00,VWS V14.01,2013-08-13 11:00:00,
2013-08-13 08:00:00,69.0,66.9,29.88,North,0,0.0,0.0,93,0.00,,OVC,0.00,VWS V14.01,2013-08-13 12:00:00,
2013-08-13 09:00:00,70.2,68.1,29.91,North,0,0.0,0.0,93,0.00,,OVC,0.00,VWS V14.01,2013-08-13 13:00:00,
2013-08-13 10:00:00,71.0,69.2,29.90,North,0,0.0,0.0,94,0.00,,OVC,0.00,VWS V14.01,2013-08-13 14:00:00,
2013-08-13 11:00:00,72.7,70.9,29.90,North,0,0.0,0.0,94,0.00,,OVC,0.00,VWS V14.01,2013-08-13 15:00:00,
2013-08-13 12:00:00,72.8,71.0,29.91,North,0,0.0,0.0,94,0.01,,OVC,0.01,VWS V14.01,2013-08-13 16:00:00,
2013-08-13 13:00:00,73.7,72.5,29.88,North,0,0.0,0.0,96,0.01,,OVC,0.01,VWS V14.01,2013-08-13 17:00:00,
2013-08-13 14:00:00,76.2,73.4,29.86,North,0,0.0,0.0,91,0.00,,OVC,0.01,VWS V14.01,2013-08-13 18:00:00,
2013-08-13 15:00:00,80.9,71.8,29.85,North,0,0.0,0.0,74,0.00,,OVC,0.01,VWS V14.01,2013-08-13 19:00:00,
2013-08-13 16:00:00,83.1,76.3,29.82,North,0,0.0,0.0,80,0.00,,OVC,0.01,VWS V14.01,2013-08-13 20:00:00,
2013-08-13 17:00:00,83.9,74.3,29.81,North,0,0.0,0.0,73,0.00,,OVC,0.01,VWS V14.01,2013-08-13 21:00:00,
2013-08-13 18:00:00,80.5,73.8,29.80,North,0,0.0,0.0,80,0.00,,OVC,0.01,VWS V14.01,2013-08-13 22:00:00,
2013-08-13 19:00:00,76.2,70.3,29.80,North,0,0.0,0.0,82,0.00,,OVC,0.01,VWS V14.01,2013-08-13 23:00:00,
2013-08-13 20:00:00,73.2,67.7,29.83,North,0,0.0,0.0,83,0.00,,OVC,0.01,VWS V14.01,2013-08-14 00:00:00,
2013-08-13 21:00:00,71.7,65.6,29.84,North,0,0.0,0.0,81,0.00,,OVC,0.01,VWS V14.01,2013-08-14 01:00:00,
2013-08-13 22:00:00,71.5,65.0,29.85,North,0,0.0,0.0,80,0.00,,OVC,0.01,VWS V14.01,2013-08-14 02:00:00,
2013-08-13 23:00:00,70.1,65.7,29.85,North,0,0.0,0.0,86,0.00,,OVC,0.01,VWS V14.01,2013-08-14 03:00:00,